sensor_id;sensor_type;location;lat;lon;timestamp;P1;durP1;ratioP1;P2;durP2;ratioP2
37997;SDS011;24079;51.824;4.682;2023-06-14T00:00:58;6.85;;;3.85;;
37997;SDS011;24079;51.824;4.682;2023-06-14T00:03:24;9.07;;;3.60;;
37997;SDS011;24079;51.824;4.682;2023-06-14T00:05:51;4.53;;;3.13;;
37997;SDS011;24079;51.824;4.682;2023-06-14T00:08:17;11.25;;;3.53;;
37997;SDS011;24079;51.824;4.682;2023-06-14T00:10:43;4.95;;;3.42;;
37997;SDS011;24079;51.824;4.682;2023-06-14T00:13:09;6.88;;;3.47;;
37997;SDS011;24079;51.824;4.682;2023-06-14T00:15:36;9.38;;;3.03;;
37997;SDS011;24079;51.824;4.682;2023-06-14T00:18:01;7.40;;;3.20;;
37997;SDS011;24079;51.824;4.682;2023-06-14T00:20:28;6.70;;;3.60;;
37997;SDS011;24079;51.824;4.682;2023-06-14T00:22:55;6.57;;;3.70;;
37997;SDS011;24079;51.824;4.682;2023-06-14T00:25:22;6.30;;;3.55;;
37997;SDS011;24079;51.824;4.682;2023-06-14T00:27:50;4.75;;;3.15;;
37997;SDS011;24079;51.824;4.682;2023-06-14T00:30:17;8.32;;;3.38;;
37997;SDS011;24079;51.824;4.682;2023-06-14T00:32:44;7.00;;;3.42;;
37997;SDS011;24079;51.824;4.682;2023-06-14T00:35:10;8.60;;;3.75;;
37997;SDS011;24079;51.824;4.682;2023-06-14T00:37:37;7.40;;;3.25;;
37997;SDS011;24079;51.824;4.682;2023-06-14T00:40:03;6.18;;;3.53;;
37997;SDS011;24079;51.824;4.682;2023-06-14T00:42:30;6.78;;;3.13;;
37997;SDS011;24079;51.824;4.682;2023-06-14T00:44:56;7.88;;;3.33;;
37997;SDS011;24079;51.824;4.682;2023-06-14T00:47:24;5.68;;;3.70;;
37997;SDS011;24079;51.824;4.682;2023-06-14T00:49:50;11.55;;;3.85;;
37997;SDS011;24079;51.824;4.682;2023-06-14T00:52:17;7.32;;;3.33;;
37997;SDS011;24079;51.824;4.682;2023-06-14T00:54:44;5.20;;;3.83;;
37997;SDS011;24079;51.824;4.682;2023-06-14T00:57:10;5.93;;;3.63;;
37997;SDS011;24079;51.824;4.682;2023-06-14T00:59:42;8.27;;;3.85;;
37997;SDS011;24079;51.824;4.682;2023-06-14T01:02:12;11.55;;;3.53;;
37997;SDS011;24079;51.824;4.682;2023-06-14T01:04:44;8.97;;;3.60;;
37997;SDS011;24079;51.824;4.682;2023-06-14T01:07:21;6.93;;;4.05;;
37997;SDS011;24079;51.824;4.682;2023-06-14T01:12:52;6.32;;;3.67;;
37997;SDS011;24079;51.824;4.682;2023-06-14T01:15:23;8.60;;;4.07;;
37997;SDS011;24079;51.824;4.682;2023-06-14T01:17:51;7.45;;;4.30;;
37997;SDS011;24079;51.824;4.682;2023-06-14T01:20:19;7.35;;;3.70;;
37997;SDS011;24079;51.824;4.682;2023-06-14T01:22:53;11.15;;;4.25;;
37997;SDS011;24079;51.824;4.682;2023-06-14T01:25:19;7.18;;;3.70;;
37997;SDS011;24079;51.824;4.682;2023-06-14T01:27:48;8.90;;;3.83;;
37997;SDS011;24079;51.824;4.682;2023-06-14T01:30:16;8.27;;;3.88;;
37997;SDS011;24079;51.824;4.682;2023-06-14T01:32:43;7.50;;;3.70;;
37997;SDS011;24079;51.824;4.682;2023-06-14T01:35:11;6.63;;;3.72;;
37997;SDS011;24079;51.824;4.682;2023-06-14T01:37:36;10.18;;;3.78;;
37997;SDS011;24079;51.824;4.682;2023-06-14T01:40:03;10.48;;;3.67;;
37997;SDS011;24079;51.824;4.682;2023-06-14T01:42:31;8.20;;;3.53;;
37997;SDS011;24079;51.824;4.682;2023-06-14T01:45:01;8.68;;;3.20;;
37997;SDS011;24079;51.824;4.682;2023-06-14T01:47:29;10.90;;;3.45;;
37997;SDS011;24079;51.824;4.682;2023-06-14T01:49:56;7.88;;;3.33;;
37997;SDS011;24079;51.824;4.682;2023-06-14T01:52:21;7.78;;;4.07;;
37997;SDS011;24079;51.824;4.682;2023-06-14T01:54:50;7.10;;;3.53;;
37997;SDS011;24079;51.824;4.682;2023-06-14T01:57:16;6.47;;;3.63;;
37997;SDS011;24079;51.824;4.682;2023-06-14T01:59:42;9.90;;;3.70;;
37997;SDS011;24079;51.824;4.682;2023-06-14T02:02:14;10.10;;;3.63;;
37997;SDS011;24079;51.824;4.682;2023-06-14T02:04:41;7.88;;;4.10;;
37997;SDS011;24079;51.824;4.682;2023-06-14T02:07:07;7.40;;;3.80;;
37997;SDS011;24079;51.824;4.682;2023-06-14T02:09:33;6.75;;;3.83;;
37997;SDS011;24079;51.824;4.682;2023-06-14T02:12:01;9.70;;;3.45;;
37997;SDS011;24079;51.824;4.682;2023-06-14T02:14:27;9.95;;;3.65;;
37997;SDS011;24079;51.824;4.682;2023-06-14T02:16:53;8.55;;;3.58;;
37997;SDS011;24079;51.824;4.682;2023-06-14T02:19:20;9.45;;;3.97;;
37997;SDS011;24079;51.824;4.682;2023-06-14T02:21:47;9.30;;;3.25;;
37997;SDS011;24079;51.824;4.682;2023-06-14T02:24:13;7.13;;;3.50;;
37997;SDS011;24079;51.824;4.682;2023-06-14T02:26:39;14.40;;;4.00;;
37997;SDS011;24079;51.824;4.682;2023-06-14T02:29:07;6.65;;;3.25;;
37997;SDS011;24079;51.824;4.682;2023-06-14T02:31:37;7.13;;;3.80;;
37997;SDS011;24079;51.824;4.682;2023-06-14T02:34:03;8.93;;;3.95;;
37997;SDS011;24079;51.824;4.682;2023-06-14T02:36:29;6.82;;;3.72;;
37997;SDS011;24079;51.824;4.682;2023-06-14T02:38:56;12.60;;;4.00;;
37997;SDS011;24079;51.824;4.682;2023-06-14T02:41:25;7.65;;;3.38;;
37997;SDS011;24079;51.824;4.682;2023-06-14T02:43:51;12.07;;;3.72;;
37997;SDS011;24079;51.824;4.682;2023-06-14T02:46:18;9.80;;;4.00;;
37997;SDS011;24079;51.824;4.682;2023-06-14T02:48:44;16.92;;;4.28;;
37997;SDS011;24079;51.824;4.682;2023-06-14T02:51:10;12.52;;;3.70;;
37997;SDS011;24079;51.824;4.682;2023-06-14T02:53:38;8.98;;;3.58;;
37997;SDS011;24079;51.824;4.682;2023-06-14T02:56:04;9.10;;;3.45;;
37997;SDS011;24079;51.824;4.682;2023-06-14T02:58:30;12.20;;;3.78;;
37997;SDS011;24079;51.824;4.682;2023-06-14T03:00:56;13.02;;;3.75;;
37997;SDS011;24079;51.824;4.682;2023-06-14T03:03:22;10.63;;;3.83;;
37997;SDS011;24079;51.824;4.682;2023-06-14T03:05:50;7.90;;;3.70;;
37997;SDS011;24079;51.824;4.682;2023-06-14T03:08:16;11.52;;;4.18;;
37997;SDS011;24079;51.824;4.682;2023-06-14T03:10:48;7.70;;;3.65;;
37997;SDS011;24079;51.824;4.682;2023-06-14T03:13:15;7.13;;;3.88;;
37997;SDS011;24079;51.824;4.682;2023-06-14T03:15:41;6.90;;;3.75;;
37997;SDS011;24079;51.824;4.682;2023-06-14T03:18:08;10.93;;;3.60;;
37997;SDS011;24079;51.824;4.682;2023-06-14T03:20:38;9.00;;;3.78;;
37997;SDS011;24079;51.824;4.682;2023-06-14T03:23:04;9.55;;;4.00;;
37997;SDS011;24079;51.824;4.682;2023-06-14T03:25:31;6.32;;;3.58;;
37997;SDS011;24079;51.824;4.682;2023-06-14T03:28:01;6.18;;;3.67;;
37997;SDS011;24079;51.824;4.682;2023-06-14T03:30:30;15.90;;;4.10;;
37997;SDS011;24079;51.824;4.682;2023-06-14T03:32:56;8.23;;;4.05;;
37997;SDS011;24079;51.824;4.682;2023-06-14T03:35:22;11.15;;;4.10;;
37997;SDS011;24079;51.824;4.682;2023-06-14T03:37:48;11.50;;;4.13;;
37997;SDS011;24079;51.824;4.682;2023-06-14T03:40:15;6.60;;;4.05;;
37997;SDS011;24079;51.824;4.682;2023-06-14T03:42:43;14.25;;;4.43;;
37997;SDS011;24079;51.824;4.682;2023-06-14T03:45:09;7.60;;;4.15;;
37997;SDS011;24079;51.824;4.682;2023-06-14T03:47:35;9.57;;;3.58;;
37997;SDS011;24079;51.824;4.682;2023-06-14T03:50:04;9.88;;;3.80;;
37997;SDS011;24079;51.824;4.682;2023-06-14T03:52:30;12.60;;;4.50;;
37997;SDS011;24079;51.824;4.682;2023-06-14T03:54:56;9.98;;;3.97;;
37997;SDS011;24079;51.824;4.682;2023-06-14T03:57:24;7.15;;;4.13;;
37997;SDS011;24079;51.824;4.682;2023-06-14T03:59:49;10.30;;;4.03;;
37997;SDS011;24079;51.824;4.682;2023-06-14T04:02:16;10.75;;;4.03;;
37997;SDS011;24079;51.824;4.682;2023-06-14T04:04:42;6.70;;;3.45;;
37997;SDS011;24079;51.824;4.682;2023-06-14T04:07:10;11.05;;;3.97;;
37997;SDS011;24079;51.824;4.682;2023-06-14T04:09:37;15.88;;;4.70;;
37997;SDS011;24079;51.824;4.682;2023-06-14T04:12:03;9.93;;;4.28;;
37997;SDS011;24079;51.824;4.682;2023-06-14T04:14:29;9.98;;;4.45;;
37997;SDS011;24079;51.824;4.682;2023-06-14T04:16:55;9.45;;;4.50;;
37997;SDS011;24079;51.824;4.682;2023-06-14T04:19:22;10.15;;;4.13;;
37997;SDS011;24079;51.824;4.682;2023-06-14T04:21:48;10.88;;;4.68;;
37997;SDS011;24079;51.824;4.682;2023-06-14T04:24:14;8.75;;;3.88;;
37997;SDS011;24079;51.824;4.682;2023-06-14T04:26:41;11.48;;;3.97;;
37997;SDS011;24079;51.824;4.682;2023-06-14T04:29:13;12.32;;;4.05;;
37997;SDS011;24079;51.824;4.682;2023-06-14T04:31:45;12.43;;;4.10;;
37997;SDS011;24079;51.824;4.682;2023-06-14T04:34:11;8.40;;;4.10;;
37997;SDS011;24079;51.824;4.682;2023-06-14T04:36:46;9.60;;;3.45;;
37997;SDS011;24079;51.824;4.682;2023-06-14T04:39:18;11.88;;;4.30;;
37997;SDS011;24079;51.824;4.682;2023-06-14T04:41:44;8.60;;;3.80;;
37997;SDS011;24079;51.824;4.682;2023-06-14T04:44:10;17.60;;;6.60;;
37997;SDS011;24079;51.824;4.682;2023-06-14T04:46:37;26.75;;;10.20;;
37997;SDS011;24079;51.824;4.682;2023-06-14T04:49:11;7.15;;;4.07;;
37997;SDS011;24079;51.824;4.682;2023-06-14T04:51:43;7.75;;;3.60;;
37997;SDS011;24079;51.824;4.682;2023-06-14T04:54:10;11.50;;;3.60;;
37997;SDS011;24079;51.824;4.682;2023-06-14T04:56:48;4.80;;;3.28;;
37997;SDS011;24079;51.824;4.682;2023-06-14T04:59:13;11.13;;;4.30;;
37997;SDS011;24079;51.824;4.682;2023-06-14T05:01:40;7.20;;;3.97;;
37997;SDS011;24079;51.824;4.682;2023-06-14T05:04:06;9.95;;;4.30;;
37997;SDS011;24079;51.824;4.682;2023-06-14T05:06:32;8.02;;;4.18;;
37997;SDS011;24079;51.824;4.682;2023-06-14T05:08:58;11.75;;;3.70;;
37997;SDS011;24079;51.824;4.682;2023-06-14T05:11:23;8.98;;;3.60;;
37997;SDS011;24079;51.824;4.682;2023-06-14T05:13:49;13.27;;;4.00;;
37997;SDS011;24079;51.824;4.682;2023-06-14T05:16:16;7.55;;;3.65;;
37997;SDS011;24079;51.824;4.682;2023-06-14T05:18:44;13.15;;;4.00;;
37997;SDS011;24079;51.824;4.682;2023-06-14T05:21:10;10.85;;;4.30;;
37997;SDS011;24079;51.824;4.682;2023-06-14T05:23:36;14.43;;;4.18;;
37997;SDS011;24079;51.824;4.682;2023-06-14T05:26:02;15.38;;;4.68;;
37997;SDS011;24079;51.824;4.682;2023-06-14T05:28:30;12.15;;;4.00;;
37997;SDS011;24079;51.824;4.682;2023-06-14T05:30:56;8.55;;;4.18;;
37997;SDS011;24079;51.824;4.682;2023-06-14T05:33:23;8.05;;;3.85;;
37997;SDS011;24079;51.824;4.682;2023-06-14T05:35:49;8.02;;;4.10;;
37997;SDS011;24079;51.824;4.682;2023-06-14T05:38:16;10.13;;;3.85;;
37997;SDS011;24079;51.824;4.682;2023-06-14T05:40:42;8.98;;;3.60;;
37997;SDS011;24079;51.824;4.682;2023-06-14T05:43:08;18.35;;;3.90;;
37997;SDS011;24079;51.824;4.682;2023-06-14T05:45:33;12.90;;;3.92;;
37997;SDS011;24079;51.824;4.682;2023-06-14T05:47:59;16.33;;;4.00;;
37997;SDS011;24079;51.824;4.682;2023-06-14T05:50:25;15.57;;;5.00;;
37997;SDS011;24079;51.824;4.682;2023-06-14T05:52:51;8.40;;;3.55;;
37997;SDS011;24079;51.824;4.682;2023-06-14T05:55:17;11.68;;;3.97;;
37997;SDS011;24079;51.824;4.682;2023-06-14T05:57:43;7.45;;;3.67;;
37997;SDS011;24079;51.824;4.682;2023-06-14T06:00:09;10.82;;;4.22;;
37997;SDS011;24079;51.824;4.682;2023-06-14T06:02:40;10.75;;;3.70;;
37997;SDS011;24079;51.824;4.682;2023-06-14T06:05:09;10.40;;;3.30;;
37997;SDS011;24079;51.824;4.682;2023-06-14T06:07:36;10.57;;;3.80;;
37997;SDS011;24079;51.824;4.682;2023-06-14T06:10:03;10.38;;;3.58;;
37997;SDS011;24079;51.824;4.682;2023-06-14T06:12:30;6.93;;;3.83;;
37997;SDS011;24079;51.824;4.682;2023-06-14T06:14:58;6.93;;;3.42;;
37997;SDS011;24079;51.824;4.682;2023-06-14T06:17:25;11.38;;;3.80;;
37997;SDS011;24079;51.824;4.682;2023-06-14T06:19:51;11.55;;;3.70;;
37997;SDS011;24079;51.824;4.682;2023-06-14T06:22:17;9.40;;;3.58;;
37997;SDS011;24079;51.824;4.682;2023-06-14T06:24:43;9.30;;;3.50;;
37997;SDS011;24079;51.824;4.682;2023-06-14T06:27:10;17.58;;;4.30;;
37997;SDS011;24079;51.824;4.682;2023-06-14T06:29:38;6.18;;;3.50;;
37997;SDS011;24079;51.824;4.682;2023-06-14T06:32:04;8.98;;;3.75;;
37997;SDS011;24079;51.824;4.682;2023-06-14T06:34:30;8.48;;;3.60;;
37997;SDS011;24079;51.824;4.682;2023-06-14T06:36:56;10.48;;;3.92;;
37997;SDS011;24079;51.824;4.682;2023-06-14T06:39:22;11.65;;;3.55;;
37997;SDS011;24079;51.824;4.682;2023-06-14T06:41:49;7.50;;;3.65;;
37997;SDS011;24079;51.824;4.682;2023-06-14T06:44:15;10.98;;;3.70;;
37997;SDS011;24079;51.824;4.682;2023-06-14T06:46:41;13.82;;;3.95;;
37997;SDS011;24079;51.824;4.682;2023-06-14T06:49:08;10.38;;;3.90;;
37997;SDS011;24079;51.824;4.682;2023-06-14T06:51:37;13.98;;;3.63;;
37997;SDS011;24079;51.824;4.682;2023-06-14T06:54:05;10.48;;;3.72;;
37997;SDS011;24079;51.824;4.682;2023-06-14T06:56:32;8.85;;;3.60;;
37997;SDS011;24079;51.824;4.682;2023-06-14T06:58:58;13.90;;;3.85;;
37997;SDS011;24079;51.824;4.682;2023-06-14T07:01:24;8.60;;;3.50;;
37997;SDS011;24079;51.824;4.682;2023-06-14T07:03:51;7.32;;;3.38;;
37997;SDS011;24079;51.824;4.682;2023-06-14T07:06:17;6.03;;;3.40;;
37997;SDS011;24079;51.824;4.682;2023-06-14T07:08:44;7.90;;;3.38;;
37997;SDS011;24079;51.824;4.682;2023-06-14T07:11:11;9.73;;;3.42;;
37997;SDS011;24079;51.824;4.682;2023-06-14T07:13:37;7.90;;;3.83;;
37997;SDS011;24079;51.824;4.682;2023-06-14T07:16:03;8.05;;;3.55;;
37997;SDS011;24079;51.824;4.682;2023-06-14T07:18:30;11.25;;;3.55;;
37997;SDS011;24079;51.824;4.682;2023-06-14T07:20:56;8.98;;;3.40;;
37997;SDS011;24079;51.824;4.682;2023-06-14T07:23:22;10.40;;;3.58;;
37997;SDS011;24079;51.824;4.682;2023-06-14T07:25:49;12.98;;;3.88;;
37997;SDS011;24079;51.824;4.682;2023-06-14T07:28:16;7.85;;;3.42;;
37997;SDS011;24079;51.824;4.682;2023-06-14T07:30:43;10.88;;;4.07;;
37997;SDS011;24079;51.824;4.682;2023-06-14T07:33:09;10.65;;;3.70;;
37997;SDS011;24079;51.824;4.682;2023-06-14T07:35:37;11.85;;;3.75;;
37997;SDS011;24079;51.824;4.682;2023-06-14T07:38:03;9.20;;;3.40;;
37997;SDS011;24079;51.824;4.682;2023-06-14T07:40:29;10.20;;;3.50;;
37997;SDS011;24079;51.824;4.682;2023-06-14T07:42:55;13.55;;;4.03;;
37997;SDS011;24079;51.824;4.682;2023-06-14T07:45:21;9.18;;;3.80;;
37997;SDS011;24079;51.824;4.682;2023-06-14T07:47:47;12.57;;;4.03;;
37997;SDS011;24079;51.824;4.682;2023-06-14T07:50:13;17.38;;;3.85;;
37997;SDS011;24079;51.824;4.682;2023-06-14T07:52:39;9.18;;;3.53;;
37997;SDS011;24079;51.824;4.682;2023-06-14T07:55:05;9.38;;;3.70;;
37997;SDS011;24079;51.824;4.682;2023-06-14T07:57:32;10.80;;;3.40;;
37997;SDS011;24079;51.824;4.682;2023-06-14T07:59:57;10.00;;;3.33;;
37997;SDS011;24079;51.824;4.682;2023-06-14T08:02:23;10.30;;;3.53;;
37997;SDS011;24079;51.824;4.682;2023-06-14T08:04:49;7.45;;;2.85;;
37997;SDS011;24079;51.824;4.682;2023-06-14T08:07:15;12.48;;;3.20;;
37997;SDS011;24079;51.824;4.682;2023-06-14T08:09:42;11.23;;;3.15;;
37997;SDS011;24079;51.824;4.682;2023-06-14T08:12:08;16.58;;;3.42;;
37997;SDS011;24079;51.824;4.682;2023-06-14T08:14:35;7.25;;;3.30;;
37997;SDS011;24079;51.824;4.682;2023-06-14T08:17:00;7.65;;;3.47;;
37997;SDS011;24079;51.824;4.682;2023-06-14T08:19:26;11.57;;;3.55;;
37997;SDS011;24079;51.824;4.682;2023-06-14T08:21:52;9.38;;;3.28;;
37997;SDS011;24079;51.824;4.682;2023-06-14T08:24:20;7.80;;;3.10;;
37997;SDS011;24079;51.824;4.682;2023-06-14T08:26:49;10.32;;;3.20;;
37997;SDS011;24079;51.824;4.682;2023-06-14T08:29:15;4.65;;;2.90;;
37997;SDS011;24079;51.824;4.682;2023-06-14T08:31:40;5.40;;;2.95;;
37997;SDS011;24079;51.824;4.682;2023-06-14T08:34:06;7.45;;;3.42;;
37997;SDS011;24079;51.824;4.682;2023-06-14T08:36:32;11.68;;;3.13;;
37997;SDS011;24079;51.824;4.682;2023-06-14T08:38:58;8.45;;;3.15;;
37997;SDS011;24079;51.824;4.682;2023-06-14T08:41:23;6.22;;;2.83;;
37997;SDS011;24079;51.824;4.682;2023-06-14T08:43:49;7.10;;;2.92;;
37997;SDS011;24079;51.824;4.682;2023-06-14T08:46:17;7.03;;;2.92;;
37997;SDS011;24079;51.824;4.682;2023-06-14T08:48:50;9.60;;;3.33;;
37997;SDS011;24079;51.824;4.682;2023-06-14T08:51:20;11.75;;;3.72;;
37997;SDS011;24079;51.824;4.682;2023-06-14T08:53:49;3.90;;;2.90;;
37997;SDS011;24079;51.824;4.682;2023-06-14T08:56:19;8.23;;;3.03;;
37997;SDS011;24079;51.824;4.682;2023-06-14T08:58:45;11.18;;;3.42;;
37997;SDS011;24079;51.824;4.682;2023-06-14T09:01:13;6.80;;;2.90;;
37997;SDS011;24079;51.824;4.682;2023-06-14T09:03:40;8.98;;;2.97;;
37997;SDS011;24079;51.824;4.682;2023-06-14T09:06:06;4.50;;;2.70;;
37997;SDS011;24079;51.824;4.682;2023-06-14T09:08:42;5.53;;;3.20;;
37997;SDS011;24079;51.824;4.682;2023-06-14T09:11:12;9.05;;;3.35;;
37997;SDS011;24079;51.824;4.682;2023-06-14T09:13:39;6.90;;;2.83;;
37997;SDS011;24079;51.824;4.682;2023-06-14T09:16:07;7.20;;;3.10;;
37997;SDS011;24079;51.824;4.682;2023-06-14T09:18:37;8.23;;;2.95;;
37997;SDS011;24079;51.824;4.682;2023-06-14T09:21:07;15.27;;;3.05;;
37997;SDS011;24079;51.824;4.682;2023-06-14T09:23:40;12.75;;;2.85;;
37997;SDS011;24079;51.824;4.682;2023-06-14T09:26:10;10.07;;;2.92;;
37997;SDS011;24079;51.824;4.682;2023-06-14T09:28:44;8.45;;;2.70;;
37997;SDS011;24079;51.824;4.682;2023-06-14T09:31:12;6.80;;;3.05;;
37997;SDS011;24079;51.824;4.682;2023-06-14T09:33:43;6.72;;;2.65;;
37997;SDS011;24079;51.824;4.682;2023-06-14T09:36:18;6.10;;;2.63;;
37997;SDS011;24079;51.824;4.682;2023-06-14T09:38:52;6.68;;;2.50;;
37997;SDS011;24079;51.824;4.682;2023-06-14T09:41:19;4.57;;;2.63;;
37997;SDS011;24079;51.824;4.682;2023-06-14T09:43:46;5.63;;;2.97;;
37997;SDS011;24079;51.824;4.682;2023-06-14T09:46:13;9.77;;;2.50;;
37997;SDS011;24079;51.824;4.682;2023-06-14T09:48:39;8.35;;;2.50;;
37997;SDS011;24079;51.824;4.682;2023-06-14T09:51:09;6.70;;;2.50;;
37997;SDS011;24079;51.824;4.682;2023-06-14T09:53:36;7.40;;;2.38;;
37997;SDS011;24079;51.824;4.682;2023-06-14T09:56:02;8.52;;;2.50;;
37997;SDS011;24079;51.824;4.682;2023-06-14T09:58:30;7.50;;;2.55;;
37997;SDS011;24079;51.824;4.682;2023-06-14T10:01:00;6.93;;;2.40;;
37997;SDS011;24079;51.824;4.682;2023-06-14T10:03:28;7.80;;;2.60;;
37997;SDS011;24079;51.824;4.682;2023-06-14T10:05:55;5.18;;;2.38;;
37997;SDS011;24079;51.824;4.682;2023-06-14T10:08:28;12.95;;;2.30;;
37997;SDS011;24079;51.824;4.682;2023-06-14T10:10:58;10.75;;;2.22;;
37997;SDS011;24079;51.824;4.682;2023-06-14T10:13:25;6.43;;;2.30;;
37997;SDS011;24079;51.824;4.682;2023-06-14T10:15:57;7.82;;;2.17;;
37997;SDS011;24079;51.824;4.682;2023-06-14T10:18:49;2.65;;;2.00;;
37997;SDS011;24079;51.824;4.682;2023-06-14T10:23:56;4.07;;;2.20;;
37997;SDS011;24079;51.824;4.682;2023-06-14T10:26:28;6.57;;;2.47;;
37997;SDS011;24079;51.824;4.682;2023-06-14T10:29:01;7.60;;;2.45;;
37997;SDS011;24079;51.824;4.682;2023-06-14T10:31:40;7.25;;;2.15;;
37997;SDS011;24079;51.824;4.682;2023-06-14T10:37:06;3.90;;;1.73;;
37997;SDS011;24079;51.824;4.682;2023-06-14T10:39:41;3.13;;;2.05;;
37997;SDS011;24079;51.824;4.682;2023-06-14T10:42:12;6.85;;;1.92;;
37997;SDS011;24079;51.824;4.682;2023-06-14T10:44:40;3.22;;;1.88;;
37997;SDS011;24079;51.824;4.682;2023-06-14T10:47:39;4.10;;;2.00;;
37997;SDS011;24079;51.824;4.682;2023-06-14T10:50:08;3.28;;;1.80;;
37997;SDS011;24079;51.824;4.682;2023-06-14T10:52:41;2.85;;;1.67;;
37997;SDS011;24079;51.824;4.682;2023-06-14T10:55:10;3.30;;;1.75;;
37997;SDS011;24079;51.824;4.682;2023-06-14T11:00:07;2.13;;;1.55;;
37997;SDS011;24079;51.824;4.682;2023-06-14T11:02:51;3.20;;;1.60;;
37997;SDS011;24079;51.824;4.682;2023-06-14T11:05:57;3.95;;;1.58;;
37997;SDS011;24079;51.824;4.682;2023-06-14T11:11:08;3.55;;;1.30;;
37997;SDS011;24079;51.824;4.682;2023-06-14T11:13:38;7.50;;;1.67;;
37997;SDS011;24079;51.824;4.682;2023-06-14T11:16:10;4.93;;;1.80;;
37997;SDS011;24079;51.824;4.682;2023-06-14T11:18:37;3.27;;;1.47;;
37997;SDS011;24079;51.824;4.682;2023-06-14T11:21:03;3.22;;;1.52;;
37997;SDS011;24079;51.824;4.682;2023-06-14T11:23:29;3.42;;;1.70;;
37997;SDS011;24079;51.824;4.682;2023-06-14T11:25:55;3.67;;;1.67;;
37997;SDS011;24079;51.824;4.682;2023-06-14T11:28:22;2.88;;;1.73;;
37997;SDS011;24079;51.824;4.682;2023-06-14T11:30:49;4.88;;;1.80;;
37997;SDS011;24079;51.824;4.682;2023-06-14T11:33:24;3.08;;;1.55;;
37997;SDS011;24079;51.824;4.682;2023-06-14T11:35:50;7.45;;;1.50;;
37997;SDS011;24079;51.824;4.682;2023-06-14T11:38:17;3.05;;;1.45;;
37997;SDS011;24079;51.824;4.682;2023-06-14T11:40:43;5.43;;;1.77;;
37997;SDS011;24079;51.824;4.682;2023-06-14T11:43:08;2.88;;;1.50;;
37997;SDS011;24079;51.824;4.682;2023-06-14T11:45:35;2.47;;;1.60;;
37997;SDS011;24079;51.824;4.682;2023-06-14T11:48:00;3.60;;;1.92;;
37997;SDS011;24079;51.824;4.682;2023-06-14T11:50:27;3.70;;;1.70;;
37997;SDS011;24079;51.824;4.682;2023-06-14T11:52:54;4.15;;;1.70;;
37997;SDS011;24079;51.824;4.682;2023-06-14T11:55:24;5.90;;;1.75;;
37997;SDS011;24079;51.824;4.682;2023-06-14T11:57:50;4.28;;;1.50;;
37997;SDS011;24079;51.824;4.682;2023-06-14T12:00:19;7.20;;;1.90;;
37997;SDS011;24079;51.824;4.682;2023-06-14T12:02:53;5.32;;;1.63;;
37997;SDS011;24079;51.824;4.682;2023-06-14T12:05:21;3.78;;;1.38;;
37997;SDS011;24079;51.824;4.682;2023-06-14T12:07:48;4.60;;;1.70;;
37997;SDS011;24079;51.824;4.682;2023-06-14T12:10:15;3.83;;;1.60;;
37997;SDS011;24079;51.824;4.682;2023-06-14T12:12:42;2.65;;;1.65;;
37997;SDS011;24079;51.824;4.682;2023-06-14T12:15:09;4.63;;;1.50;;
37997;SDS011;24079;51.824;4.682;2023-06-14T12:17:39;3.72;;;1.75;;
37997;SDS011;24079;51.824;4.682;2023-06-14T12:20:08;2.53;;;1.77;;
37997;SDS011;24079;51.824;4.682;2023-06-14T12:22:46;7.70;;;1.67;;
37997;SDS011;24079;51.824;4.682;2023-06-14T12:25:29;3.00;;;1.70;;
37997;SDS011;24079;51.824;4.682;2023-06-14T12:27:57;6.18;;;1.98;;
37997;SDS011;24079;51.824;4.682;2023-06-14T12:30:33;5.53;;;1.80;;
37997;SDS011;24079;51.824;4.682;2023-06-14T12:33:01;5.65;;;1.80;;
37997;SDS011;24079;51.824;4.682;2023-06-14T12:35:28;5.20;;;1.60;;
37997;SDS011;24079;51.824;4.682;2023-06-14T12:37:54;2.70;;;1.70;;
37997;SDS011;24079;51.824;4.682;2023-06-14T12:40:20;5.88;;;1.80;;
37997;SDS011;24079;51.824;4.682;2023-06-14T12:42:46;5.20;;;1.55;;
37997;SDS011;24079;51.824;4.682;2023-06-14T12:45:12;4.05;;;1.92;;
37997;SDS011;24079;51.824;4.682;2023-06-14T12:47:39;2.05;;;1.50;;
37997;SDS011;24079;51.824;4.682;2023-06-14T12:50:05;3.80;;;1.77;;
37997;SDS011;24079;51.824;4.682;2023-06-14T12:52:31;3.92;;;1.90;;
37997;SDS011;24079;51.824;4.682;2023-06-14T12:55:00;4.93;;;2.03;;
37997;SDS011;24079;51.824;4.682;2023-06-14T12:57:27;2.97;;;1.67;;
37997;SDS011;24079;51.824;4.682;2023-06-14T12:59:53;2.10;;;1.60;;
37997;SDS011;24079;51.824;4.682;2023-06-14T13:02:19;4.15;;;1.70;;
37997;SDS011;24079;51.824;4.682;2023-06-14T13:04:49;2.33;;;1.70;;
37997;SDS011;24079;51.824;4.682;2023-06-14T13:07:15;4.07;;;1.80;;
37997;SDS011;24079;51.824;4.682;2023-06-14T13:09:41;4.55;;;1.63;;
37997;SDS011;24079;51.824;4.682;2023-06-14T13:12:10;7.00;;;2.03;;
37997;SDS011;24079;51.824;4.682;2023-06-14T13:14:38;4.40;;;1.80;;
37997;SDS011;24079;51.824;4.682;2023-06-14T13:17:07;2.45;;;1.63;;
37997;SDS011;24079;51.824;4.682;2023-06-14T13:19:34;5.45;;;2.03;;
37997;SDS011;24079;51.824;4.682;2023-06-14T13:22:00;4.50;;;1.90;;
37997;SDS011;24079;51.824;4.682;2023-06-14T13:24:26;1.90;;;1.70;;
37997;SDS011;24079;51.824;4.682;2023-06-14T13:26:55;2.50;;;1.63;;
37997;SDS011;24079;51.824;4.682;2023-06-14T13:29:22;1.63;;;1.52;;
37997;SDS011;24079;51.824;4.682;2023-06-14T13:31:49;2.30;;;2.00;;
37997;SDS011;24079;51.824;4.682;2023-06-14T13:34:15;5.10;;;1.50;;
37997;SDS011;24079;51.824;4.682;2023-06-14T13:36:41;6.43;;;2.50;;
37997;SDS011;24079;51.824;4.682;2023-06-14T13:39:08;2.92;;;1.73;;
37997;SDS011;24079;51.824;4.682;2023-06-14T13:41:34;6.97;;;1.90;;
37997;SDS011;24079;51.824;4.682;2023-06-14T13:44:00;2.85;;;1.67;;
37997;SDS011;24079;51.824;4.682;2023-06-14T13:46:29;6.60;;;2.05;;
37997;SDS011;24079;51.824;4.682;2023-06-14T13:48:55;4.78;;;1.80;;
37997;SDS011;24079;51.824;4.682;2023-06-14T13:51:22;3.17;;;1.60;;
37997;SDS011;24079;51.824;4.682;2023-06-14T13:53:48;3.63;;;1.90;;
37997;SDS011;24079;51.824;4.682;2023-06-14T13:56:16;4.72;;;2.30;;
37997;SDS011;24079;51.824;4.682;2023-06-14T13:58:43;3.05;;;1.80;;
37997;SDS011;24079;51.824;4.682;2023-06-14T14:01:09;4.57;;;2.03;;
37997;SDS011;24079;51.824;4.682;2023-06-14T14:03:35;7.63;;;2.22;;
37997;SDS011;24079;51.824;4.682;2023-06-14T14:06:02;7.32;;;1.70;;
37997;SDS011;24079;51.824;4.682;2023-06-14T14:08:29;5.35;;;1.60;;
37997;SDS011;24079;51.824;4.682;2023-06-14T14:10:56;4.13;;;1.70;;
37997;SDS011;24079;51.824;4.682;2023-06-14T14:13:22;5.18;;;1.70;;
37997;SDS011;24079;51.824;4.682;2023-06-14T14:15:48;4.07;;;1.83;;
37997;SDS011;24079;51.824;4.682;2023-06-14T14:18:14;8.63;;;2.00;;
37997;SDS011;24079;51.824;4.682;2023-06-14T14:20:40;5.18;;;1.80;;
37997;SDS011;24079;51.824;4.682;2023-06-14T14:23:07;4.97;;;1.65;;
37997;SDS011;24079;51.824;4.682;2023-06-14T14:25:33;4.55;;;1.85;;
37997;SDS011;24079;51.824;4.682;2023-06-14T14:27:59;3.63;;;1.73;;
37997;SDS011;24079;51.824;4.682;2023-06-14T14:30:25;11.40;;;1.98;;
37997;SDS011;24079;51.824;4.682;2023-06-14T14:32:51;3.70;;;1.67;;
37997;SDS011;24079;51.824;4.682;2023-06-14T14:35:17;6.82;;;1.52;;
37997;SDS011;24079;51.824;4.682;2023-06-14T14:37:43;2.33;;;1.48;;
37997;SDS011;24079;51.824;4.682;2023-06-14T14:40:09;7.70;;;1.63;;
37997;SDS011;24079;51.824;4.682;2023-06-14T14:42:36;2.60;;;1.48;;
37997;SDS011;24079;51.824;4.682;2023-06-14T14:45:03;5.97;;;1.70;;
37997;SDS011;24079;51.824;4.682;2023-06-14T14:47:29;4.18;;;1.88;;
37997;SDS011;24079;51.824;4.682;2023-06-14T14:49:56;6.32;;;1.60;;
37997;SDS011;24079;51.824;4.682;2023-06-14T14:52:21;3.05;;;1.73;;
37997;SDS011;24079;51.824;4.682;2023-06-14T14:54:48;7.07;;;1.92;;
37997;SDS011;24079;51.824;4.682;2023-06-14T14:57:13;5.32;;;1.98;;
37997;SDS011;24079;51.824;4.682;2023-06-14T14:59:40;5.50;;;1.73;;